Terminal Aerodrome Forecast
Issued by NWS

Home | Current Version | Previous Version | Text Only | Print | Product List | Glossary On
Versions: 1 2 3 4 5 6 7 8 9 10 11 12 13 14 15 16 17 18
631
FTUS46 KSTO 061227 AAA
TAFMHR
TAF AMD
KMHR 061227Z 0612/0712 32003KT 1/4SM FG OVC001
      TEMPO 0616/0618 1SM BR OVC003
     FM061800 VRB03KT 6SM HZ BKN250=

USA.gov is the U.S. government's official web portal to all federal, state and local government web resources and services.